sensor_id;sensor_type;location;lat;lon;timestamp;pressure;altitude;pressure_sealevel;temperature;humidity
29733;BME280;16643;43.158;25.302;2023-01-30T00:02:04;98467.09;;;1.15;100.00
29733;BME280;16643;43.158;25.302;2023-01-30T00:04:29;98466.16;;;1.08;100.00
29733;BME280;16643;43.158;25.302;2023-01-30T00:06:54;98467.09;;;1.15;100.00
29733;BME280;16643;43.158;25.302;2023-01-30T00:09:20;98465.44;;;1.19;100.00
29733;BME280;16643;43.158;25.302;2023-01-30T00:11:45;98473.13;;;1.19;100.00
29733;BME280;16643;43.158;25.302;2023-01-30T00:14:11;98467.09;;;1.15;100.00
29733;BME280;16643;43.158;25.302;2023-01-30T00:16:36;98454.28;;;1.15;100.00
29733;BME280;16643;43.158;25.302;2023-01-30T00:19:02;98456.72;;;1.04;100.00
29733;BME280;16643;43.158;25.302;2023-01-30T00:21:27;98455.81;;;0.99;100.00
29733;BME280;16643;43.158;25.302;2023-01-30T00:23:53;98451.56;;;1.03;100.00
29733;BME280;16643;43.158;25.302;2023-01-30T00:26:18;98455.78;;;0.98;100.00
29733;BME280;16643;43.158;25.302;2023-01-30T00:28:43;98446.28;;;0.91;100.00
29733;BME280;16643;43.158;25.302;2023-01-30T00:31:09;98440.31;;;0.87;100.00
29733;BME280;16643;43.158;25.302;2023-01-30T00:33:35;98450.59;;;0.90;100.00
29733;BME280;16643;43.158;25.302;2023-01-30T00:36:01;98449.63;;;0.84;100.00
29733;BME280;16643;43.158;25.302;2023-01-30T00:38:29;98442.00;;;0.87;100.00
29733;BME280;16643;43.158;25.302;2023-01-30T00:40:54;98436.84;;;0.84;100.00
29733;BME280;16643;43.158;25.302;2023-01-30T00:43:20;98429.13;;;0.82;100.00
29733;BME280;16643;43.158;25.302;2023-01-30T00:49:07;98441.84;;;0.76;100.00
29733;BME280;16643;43.158;25.302;2023-01-30T00:51:32;98424.66;;;0.66;100.00
29733;BME280;16643;43.158;25.302;2023-01-30T00:53:58;98425.53;;;0.66;100.00
29733;BME280;16643;43.158;25.302;2023-01-30T00:56:23;98415.25;;;0.63;100.00
29733;BME280;16643;43.158;25.302;2023-01-30T00:58:49;98427.19;;;0.64;100.00
29733;BME280;16643;43.158;25.302;2023-01-30T01:01:14;98427.19;;;0.64;100.00
29733;BME280;16643;43.158;25.302;2023-01-30T01:03:39;98415.28;;;0.68;100.00
29733;BME280;16643;43.158;25.302;2023-01-30T01:06:05;98413.59;;;0.68;100.00
29733;BME280;16643;43.158;25.302;2023-01-30T01:08:30;98413.56;;;0.65;100.00
29733;BME280;16643;43.158;25.302;2023-01-30T01:10:57;98409.34;;;0.67;100.00
29733;BME280;16643;43.158;25.302;2023-01-30T01:13:22;98417.03;;;0.67;100.00
29733;BME280;16643;43.158;25.302;2023-01-30T01:15:48;98416.22;;;0.71;100.00
29733;BME280;16643;43.158;25.302;2023-01-30T01:18:14;98406.81;;;0.70;100.00
29733;BME280;16643;43.158;25.302;2023-01-30T01:20:39;98403.28;;;0.61;100.00
29733;BME280;16643;43.158;25.302;2023-01-30T01:23:04;98414.41;;;0.64;100.00
29733;BME280;16643;43.158;25.302;2023-01-30T01:25:30;98403.34;;;0.65;100.00
29733;BME280;16643;43.158;25.302;2023-01-30T01:27:55;98415.22;;;0.62;100.00
29733;BME280;16643;43.158;25.302;2023-01-30T01:30:21;98398.13;;;0.59;100.00
29733;BME280;16643;43.158;25.302;2023-01-30T01:32:46;98408.47;;;0.65;100.00
29733;BME280;16643;43.158;25.302;2023-01-30T01:35:11;98402.41;;;0.60;100.00
29733;BME280;16643;43.158;25.302;2023-01-30T01:37:37;98393.06;;;0.62;100.00
29733;BME280;16643;43.158;25.302;2023-01-30T01:40:03;98399.78;;;0.54;100.00
29733;BME280;16643;43.158;25.302;2023-01-30T01:42:48;98397.22;;;0.54;100.00
29733;BME280;16643;43.158;25.302;2023-01-30T01:50:13;98387.88;;;0.56;100.00
29733;BME280;16643;43.158;25.302;2023-01-30T01:52:40;98386.22;;;0.60;100.00
29733;BME280;16643;43.158;25.302;2023-01-30T01:55:07;98382.78;;;0.59;100.00
29733;BME280;16643;43.158;25.302;2023-01-30T01:57:37;98393.06;;;0.62;100.00
29733;BME280;16643;43.158;25.302;2023-01-30T02:02:29;98392.31;;;0.71;100.00
29733;BME280;16643;43.158;25.302;2023-01-30T02:04:55;98387.22;;;0.71;100.00
29733;BME280;16643;43.158;25.302;2023-01-30T02:07:33;98394.00;;;0.69;100.00
29733;BME280;16643;43.158;25.302;2023-01-30T02:10:01;98382.91;;;0.68;100.00
29733;BME280;16643;43.158;25.302;2023-01-30T02:12:27;98383.78;;;0.69;100.00
29733;BME280;16643;43.158;25.302;2023-01-30T02:14:52;98382.03;;;0.65;100.00
29733;BME280;16643;43.158;25.302;2023-01-30T02:17:19;98381.25;;;0.72;100.00
29733;BME280;16643;43.158;25.302;2023-01-30T02:24:54;98375.09;;;0.58;100.00
29733;BME280;16643;43.158;25.302;2023-01-30T02:30:04;98369.19;;;0.60;100.00
29733;BME280;16643;43.158;25.302;2023-01-30T02:32:33;98369.16;;;0.59;100.00
29733;BME280;16643;43.158;25.302;2023-01-30T02:40:31;98379.28;;;0.51;100.00
29733;BME280;16643;43.158;25.302;2023-01-30T02:45:43;98386.94;;;0.50;100.00
29733;BME280;16643;43.158;25.302;2023-01-30T02:48:15;98376.69;;;0.50;100.00
29733;BME280;16643;43.158;25.302;2023-01-30T02:50:47;98381.91;;;0.57;100.00
29733;BME280;16643;43.158;25.302;2023-01-30T02:53:15;98388.72;;;0.55;100.00
29733;BME280;16643;43.158;25.302;2023-01-30T02:55:42;98388.66;;;0.51;100.00
29733;BME280;16643;43.158;25.302;2023-01-30T02:58:07;98394.59;;;0.50;100.00
29733;BME280;16643;43.158;25.302;2023-01-30T03:11:04;98382.59;;;0.44;100.00
29733;BME280;16643;43.158;25.302;2023-01-30T03:16:16;98390.28;;;0.44;100.00
29733;BME280;16643;43.158;25.302;2023-01-30T03:18:43;98388.56;;;0.45;100.00
29733;BME280;16643;43.158;25.302;2023-01-30T03:21:09;98378.34;;;0.46;100.00
29733;BME280;16643;43.158;25.302;2023-01-30T03:23:35;98382.69;;;0.52;100.00
29733;BME280;16643;43.158;25.302;2023-01-30T03:26:01;98386.94;;;0.50;100.00
29733;BME280;16643;43.158;25.302;2023-01-30T03:28:28;98392.03;;;0.50;100.00
29733;BME280;16643;43.158;25.302;2023-01-30T03:30:54;98382.69;;;0.50;100.00
29733;BME280;16643;43.158;25.302;2023-01-30T03:33:20;98382.78;;;0.58;100.00
29733;BME280;16643;43.158;25.302;2023-01-30T03:35:45;98378.47;;;0.54;100.00
29733;BME280;16643;43.158;25.302;2023-01-30T03:38:11;98380.25;;;0.59;100.00
29733;BME280;16643;43.158;25.302;2023-01-30T03:40:37;98378.56;;;0.61;100.00
29733;BME280;16643;43.158;25.302;2023-01-30T03:43:03;98381.19;;;0.66;100.00
29733;BME280;16643;43.158;25.302;2023-01-30T03:45:28;98374.25;;;0.57;100.00
29733;BME280;16643;43.158;25.302;2023-01-30T03:47:54;98380.19;;;0.55;100.00
29733;BME280;16643;43.158;25.302;2023-01-30T03:50:19;98366.56;;;0.57;100.00
29733;BME280;16643;43.158;25.302;2023-01-30T03:52:44;98362.38;;;0.62;100.00
29733;BME280;16643;43.158;25.302;2023-01-30T03:55:10;98359.88;;;0.65;100.00
29733;BME280;16643;43.158;25.302;2023-01-30T03:57:35;98356.56;;;0.74;100.00
29733;BME280;16643;43.158;25.302;2023-01-30T04:00:01;98349.75;;;0.75;100.00
29733;BME280;16643;43.158;25.302;2023-01-30T04:02:27;98349.84;;;0.82;100.00
29733;BME280;16643;43.158;25.302;2023-01-30T04:04:53;98340.38;;;0.73;100.00
29733;BME280;16643;43.158;25.302;2023-01-30T04:07:18;98347.94;;;0.64;100.00
29733;BME280;16643;43.158;25.302;2023-01-30T04:09:44;98338.56;;;0.68;100.00
29733;BME280;16643;43.158;25.302;2023-01-30T04:12:09;98332.47;;;0.57;100.00
29733;BME280;16643;43.158;25.302;2023-01-30T04:14:35;98330.78;;;0.56;100.00
29733;BME280;16643;43.158;25.302;2023-01-30T04:17:00;98329.00;;;0.50;100.00
29733;BME280;16643;43.158;25.302;2023-01-30T04:19:26;98327.31;;;0.52;100.00
29733;BME280;16643;43.158;25.302;2023-01-30T04:21:51;98334.91;;;0.45;100.00
29733;BME280;16643;43.158;25.302;2023-01-30T04:24:16;98333.19;;;0.47;100.00
29733;BME280;16643;43.158;25.302;2023-01-30T04:26:42;98328.94;;;0.44;100.00
29733;BME280;16643;43.158;25.302;2023-01-30T04:29:07;98328.09;;;0.47;100.00
29733;BME280;16643;43.158;25.302;2023-01-30T04:31:33;98333.09;;;0.38;100.00
29733;BME280;16643;43.158;25.302;2023-01-30T04:33:58;98334.75;;;0.35;100.00
29733;BME280;16643;43.158;25.302;2023-01-30T04:36:24;98327.13;;;0.39;100.00
29733;BME280;16643;43.158;25.302;2023-01-30T04:38:49;98338.97;;;0.32;100.00
29733;BME280;16643;43.158;25.302;2023-01-30T04:41:15;98327.09;;;0.35;100.00
29733;BME280;16643;43.158;25.302;2023-01-30T04:43:40;98325.38;;;0.33;100.00
29733;BME280;16643;43.158;25.302;2023-01-30T04:46:05;98337.31;;;0.35;100.00
29733;BME280;16643;43.158;25.302;2023-01-30T04:48:31;98322.84;;;0.38;100.00
29733;BME280;16643;43.158;25.302;2023-01-30T04:50:56;98310.09;;;0.38;100.00
29733;BME280;16643;43.158;25.302;2023-01-30T04:53:25;98317.72;;;0.36;100.00
29733;BME280;16643;43.158;25.302;2023-01-30T04:55:50;98313.50;;;0.38;100.00
29733;BME280;16643;43.158;25.302;2023-01-30T04:58:16;98309.97;;;0.28;100.00
29733;BME280;16643;43.158;25.302;2023-01-30T05:00:43;98313.34;;;0.27;100.00
29733;BME280;16643;43.158;25.302;2023-01-30T05:03:09;98309.09;;;0.28;100.00
29733;BME280;16643;43.158;25.302;2023-01-30T05:05:35;98293.78;;;0.28;100.00
29733;BME280;16643;43.158;25.302;2023-01-30T05:08:00;98305.69;;;0.27;100.00
29733;BME280;16643;43.158;25.302;2023-01-30T05:10:26;98303.97;;;0.26;100.00
29733;BME280;16643;43.158;25.302;2023-01-30T05:12:51;98299.72;;;0.27;100.00
29733;BME280;16643;43.158;25.302;2023-01-30T05:15:17;98308.22;;;0.26;100.00
29733;BME280;16643;43.158;25.302;2023-01-30T05:17:42;98312.53;;;0.28;100.00
29733;BME280;16643;43.158;25.302;2023-01-30T05:20:08;98308.16;;;0.23;100.00
29733;BME280;16643;43.158;25.302;2023-01-30T05:22:34;98309.91;;;0.25;100.00
29733;BME280;16643;43.158;25.302;2023-01-30T05:24:59;98311.59;;;0.25;100.00
29733;BME280;16643;43.158;25.302;2023-01-30T05:27:25;98315.91;;;0.27;100.00
29733;BME280;16643;43.158;25.302;2023-01-30T05:29:50;98308.25;;;0.27;100.00
29733;BME280;16643;43.158;25.302;2023-01-30T05:32:16;98301.38;;;0.25;100.00
29733;BME280;16643;43.158;25.302;2023-01-30T05:34:42;98298.81;;;0.23;100.00
29733;BME280;16643;43.158;25.302;2023-01-30T05:37:08;98296.28;;;0.25;100.00
29733;BME280;16643;43.158;25.302;2023-01-30T05:39:33;98303.94;;;0.22;100.00
29733;BME280;16643;43.158;25.302;2023-01-30T05:41:59;98303.06;;;0.21;100.00
29733;BME280;16643;43.158;25.302;2023-01-30T05:44:24;98310.72;;;0.20;100.00
29733;BME280;16643;43.158;25.302;2023-01-30T05:46:50;98304.78;;;0.24;100.00
29733;BME280;16643;43.158;25.302;2023-01-30T05:49:15;98315.91;;;0.27;100.00
29733;BME280;16643;43.158;25.302;2023-01-30T05:51:41;98314.19;;;0.26;100.00
29733;BME280;16643;43.158;25.302;2023-01-30T05:54:06;98313.31;;;0.26;100.00
29733;BME280;16643;43.158;25.302;2023-01-30T05:56:32;98315.09;;;0.30;100.00
29733;BME280;16643;43.158;25.302;2023-01-30T05:58:58;98325.28;;;0.28;100.00
29733;BME280;16643;43.158;25.302;2023-01-30T06:01:24;98336.44;;;0.32;100.00
29733;BME280;16643;43.158;25.302;2023-01-30T06:03:49;98335.66;;;0.39;100.00
29733;BME280;16643;43.158;25.302;2023-01-30T06:06:15;98345.97;;;0.44;100.00
29733;BME280;16643;43.158;25.302;2023-01-30T06:08:41;98339.97;;;0.42;100.00
29733;BME280;16643;43.158;25.302;2023-01-30T06:11:07;98341.66;;;0.41;100.00
29733;BME280;16643;43.158;25.302;2023-01-30T06:13:34;98341.69;;;0.43;100.00
29733;BME280;16643;43.158;25.302;2023-01-30T06:15:59;98338.25;;;0.41;100.00
29733;BME280;16643;43.158;25.302;2023-01-30T06:18:25;98338.28;;;0.42;100.00
29733;BME280;16643;43.158;25.302;2023-01-30T06:20:51;98340.84;;;0.44;100.00
29733;BME280;16643;43.158;25.302;2023-01-30T06:23:17;98358.66;;;0.39;100.00
29733;BME280;16643;43.158;25.302;2023-01-30T06:25:46;98348.38;;;0.36;100.00
29733;BME280;16643;43.158;25.302;2023-01-30T06:28:13;98347.69;;;0.45;100.00
29733;BME280;16643;43.158;25.302;2023-01-30T06:30:38;98347.69;;;0.46;100.00
29733;BME280;16643;43.158;25.302;2023-01-30T06:33:04;98353.63;;;0.44;100.00
29733;BME280;16643;43.158;25.302;2023-01-30T06:35:29;98348.53;;;0.45;100.00
29733;BME280;16643;43.158;25.302;2023-01-30T06:37:55;98349.44;;;0.50;100.00
29733;BME280;16643;43.158;25.302;2023-01-30T06:40:20;98348.59;;;0.50;100.00
29733;BME280;16643;43.158;25.302;2023-01-30T06:42:46;98335.84;;;0.53;100.00
29733;BME280;16643;43.158;25.302;2023-01-30T06:45:12;98335.81;;;0.51;100.00
29733;BME280;16643;43.158;25.302;2023-01-30T06:47:47;98340.00;;;0.45;100.00
29733;BME280;16643;43.158;25.302;2023-01-30T06:50:13;98341.75;;;0.49;100.00
29733;BME280;16643;43.158;25.302;2023-01-30T06:52:40;98341.75;;;0.49;100.00
29733;BME280;16643;43.158;25.302;2023-01-30T06:55:06;98338.44;;;0.54;100.00
29733;BME280;16643;43.158;25.302;2023-01-30T06:57:32;98325.69;;;0.59;100.00
29733;BME280;16643;43.158;25.302;2023-01-30T06:59:57;98327.34;;;0.57;100.00
29733;BME280;16643;43.158;25.302;2023-01-30T07:02:23;98333.41;;;0.62;100.00
29733;BME280;16643;43.158;25.302;2023-01-30T07:04:48;98326.53;;;0.58;100.00
29733;BME280;16643;43.158;25.302;2023-01-30T07:07:14;98319.75;;;0.60;100.00
29733;BME280;16643;43.158;25.302;2023-01-30T07:09:39;98322.38;;;0.64;100.00
29733;BME280;16643;43.158;25.302;2023-01-30T07:12:04;98324.03;;;0.62;100.00
29733;BME280;16643;43.158;25.302;2023-01-30T07:14:30;98329.97;;;0.60;100.00
29733;BME280;16643;43.158;25.302;2023-01-30T07:16:55;98331.66;;;0.56;100.00
29733;BME280;16643;43.158;25.302;2023-01-30T07:19:21;98334.19;;;0.58;100.00
29733;BME280;16643;43.158;25.302;2023-01-30T07:21:46;98332.53;;;0.60;100.00
29733;BME280;16643;43.158;25.302;2023-01-30T07:24:12;98329.16;;;0.64;100.00
29733;BME280;16643;43.158;25.302;2023-01-30T07:26:37;98336.03;;;0.69;100.00
29733;BME280;16643;43.158;25.302;2023-01-30T07:29:02;98328.28;;;0.62;100.00
29733;BME280;16643;43.158;25.302;2023-01-30T07:31:28;98327.53;;;0.67;100.00
29733;BME280;16643;43.158;25.302;2023-01-30T07:33:53;98330.97;;;0.71;100.00
29733;BME280;16643;43.158;25.302;2023-01-30T07:36:19;98337.84;;;0.75;100.00
29733;BME280;16643;43.158;25.302;2023-01-30T07:38:46;98330.94;;;0.69;100.00
29733;BME280;16643;43.158;25.302;2023-01-30T07:41:12;98331.84;;;0.73;100.00
29733;BME280;16643;43.158;25.302;2023-01-30T07:43:37;98335.31;;;0.78;100.00
29733;BME280;16643;43.158;25.302;2023-01-30T07:46:03;98335.34;;;0.81;100.00
29733;BME280;16643;43.158;25.302;2023-01-30T07:48:28;98358.44;;;0.87;100.00
29733;BME280;16643;43.158;25.302;2023-01-30T07:50:54;98332.84;;;0.86;100.00
29733;BME280;16643;43.158;25.302;2023-01-30T07:53:21;98325.94;;;0.80;100.00
29733;BME280;16643;43.158;25.302;2023-01-30T07:55:46;98324.19;;;0.75;100.00
29733;BME280;16643;43.158;25.302;2023-01-30T07:58:12;98327.66;;;0.81;100.00
29733;BME280;16643;43.158;25.302;2023-01-30T08:00:39;98325.25;;;0.93;100.00
29733;BME280;16643;43.158;25.302;2023-01-30T08:03:04;98320.97;;;0.92;100.00
29733;BME280;16643;43.158;25.302;2023-01-30T08:05:29;98329.50;;;0.93;100.00
29733;BME280;16643;43.158;25.302;2023-01-30T08:07:55;98315.88;;;0.94;100.00
29733;BME280;16643;43.158;25.302;2023-01-30T08:10:21;98318.41;;;0.92;100.00
29733;BME280;16643;43.158;25.302;2023-01-30T08:12:48;98313.28;;;0.91;100.00
29733;BME280;16643;43.158;25.302;2023-01-30T08:15:14;98326.06;;;0.91;100.00
29733;BME280;16643;43.158;25.302;2023-01-30T08:17:39;98323.53;;;0.92;100.00
29733;BME280;16643;43.158;25.302;2023-01-30T08:20:05;98318.41;;;0.91;100.00
29733;BME280;16643;43.158;25.302;2023-01-30T08:22:30;98317.66;;;1.02;100.00
29733;BME280;16643;43.158;25.302;2023-01-30T08:24:56;98323.75;;;1.11;100.00
29733;BME280;16643;43.158;25.302;2023-01-30T08:27:21;98321.25;;;1.17;100.00
29733;BME280;16643;43.158;25.302;2023-01-30T08:29:47;98323.00;;;1.22;100.00
29733;BME280;16643;43.158;25.302;2023-01-30T08:32:12;98317.03;;;1.20;100.00
29733;BME280;16643;43.158;25.302;2023-01-30T08:34:37;98306.72;;;1.16;100.00
29733;BME280;16643;43.158;25.302;2023-01-30T08:37:03;98308.50;;;1.21;100.00
29733;BME280;16643;43.158;25.302;2023-01-30T08:39:29;98314.50;;;1.25;100.00
29733;BME280;16643;43.158;25.302;2023-01-30T08:41:54;98313.63;;;1.21;100.00
29733;BME280;16643;43.158;25.302;2023-01-30T08:44:19;98306.84;;;1.28;100.00
29733;BME280;16643;43.158;25.302;2023-01-30T08:46:45;98302.69;;;1.39;100.00
29733;BME280;16643;43.158;25.302;2023-01-30T08:49:10;98304.44;;;1.41;100.00
29733;BME280;16643;43.158;25.302;2023-01-30T08:51:36;98304.38;;;1.38;100.00
29733;BME280;16643;43.158;25.302;2023-01-30T08:54:02;98304.47;;;1.46;100.00
29733;BME280;16643;43.158;25.302;2023-01-30T08:56:27;98295.94;;;1.49;100.00
29733;BME280;16643;43.158;25.302;2023-01-30T08:58:52;98300.22;;;1.47;100.00
29733;BME280;16643;43.158;25.302;2023-01-30T09:01:18;98300.19;;;1.43;99.76
29733;BME280;16643;43.158;25.302;2023-01-30T09:03:43;98306.19;;;1.49;100.00
29733;BME280;16643;43.158;25.302;2023-01-30T09:06:09;98305.34;;;1.51;99.98
29733;BME280;16643;43.158;25.302;2023-01-30T09:08:35;98295.06;;;1.45;100.00
29733;BME280;16643;43.158;25.302;2023-01-30T09:11:01;98302.75;;;1.45;100.00
29733;BME280;16643;43.158;25.302;2023-01-30T09:13:27;98299.31;;;1.41;100.00
29733;BME280;16643;43.158;25.302;2023-01-30T09:15:52;98292.53;;;1.47;100.00
29733;BME280;16643;43.158;25.302;2023-01-30T09:18:18;98289.19;;;1.57;100.00
29733;BME280;16643;43.158;25.302;2023-01-30T09:20:44;98285.78;;;1.59;100.00
29733;BME280;16643;43.158;25.302;2023-01-30T09:23:10;98290.06;;;1.57;100.00
29733;BME280;16643;43.158;25.302;2023-01-30T09:25:35;98284.91;;;1.54;100.00
29733;BME280;16643;43.158;25.302;2023-01-30T09:28:00;98276.41;;;1.60;100.00
29733;BME280;16643;43.158;25.302;2023-01-30T09:30:26;98272.97;;;1.55;100.00
29733;BME280;16643;43.158;25.302;2023-01-30T09:32:51;98266.09;;;1.52;100.00
29733;BME280;16643;43.158;25.302;2023-01-30T09:35:17;98265.28;;;1.55;100.00
29733;BME280;16643;43.158;25.302;2023-01-30T09:37:49;98265.28;;;1.55;100.00
29733;BME280;16643;43.158;25.302;2023-01-30T09:40:19;98258.41;;;1.51;99.64
29733;BME280;16643;43.158;25.302;2023-01-30T09:42:52;98252.41;;;1.45;99.17
29733;BME280;16643;43.158;25.302;2023-01-30T09:45:40;98255.84;;;1.51;99.73
29733;BME280;16643;43.158;25.302;2023-01-30T09:55:41;98235.47;;;1.63;100.00
29733;BME280;16643;43.158;25.302;2023-01-30T09:58:12;98232.88;;;1.61;99.95
29733;BME280;16643;43.158;25.302;2023-01-30T10:00:40;98226.97;;;1.67;98.89
29733;BME280;16643;43.158;25.302;2023-01-30T10:03:12;98232.06;;;1.64;99.24
29733;BME280;16643;43.158;25.302;2023-01-30T10:05:51;98224.34;;;1.61;98.13
29733;BME280;16643;43.158;25.302;2023-01-30T10:24:12;98181.63;;;1.54;99.85
29733;BME280;16643;43.158;25.302;2023-01-30T10:26:39;98175.69;;;1.62;97.42
29733;BME280;16643;43.158;25.302;2023-01-30T10:29:07;98181.63;;;1.58;97.66
29733;BME280;16643;43.158;25.302;2023-01-30T10:32:19;98172.25;;;1.56;98.13
29733;BME280;16643;43.158;25.302;2023-01-30T10:34:31;98162.91;;;1.65;99.22
29733;BME280;16643;43.158;25.302;2023-01-30T10:39:40;98155.31;;;1.80;96.94
29733;BME280;16643;43.158;25.302;2023-01-30T10:42:15;98151.16;;;2.01;97.48
29733;BME280;16643;43.158;25.302;2023-01-30T10:44:44;98151.19;;;2.11;97.07
29733;BME280;16643;43.158;25.302;2023-01-30T10:47:16;98147.78;;;2.17;96.52
29733;BME280;16643;43.158;25.302;2023-01-30T10:49:51;98145.19;;;2.11;97.00
29733;BME280;16643;43.158;25.302;2023-01-30T10:52:41;98145.22;;;2.14;97.26
29733;BME280;16643;43.158;25.302;2023-01-30T10:57:42;98129.78;;;2.00;95.33
29733;BME280;16643;43.158;25.302;2023-01-30T11:02:39;98117.78;;;1.90;95.75
29733;BME280;16643;43.158;25.302;2023-01-30T11:05:12;98122.91;;;1.87;95.27
29733;BME280;16643;43.158;25.302;2023-01-30T11:07:38;98106.69;;;1.88;95.97
29733;BME280;16643;43.158;25.302;2023-01-30T11:10:09;98103.25;;;1.86;94.98
29733;BME280;16643;43.158;25.302;2023-01-30T11:12:38;98105.81;;;1.88;95.63
29733;BME280;16643;43.158;25.302;2023-01-30T11:15:04;98099.81;;;1.82;95.35
29733;BME280;16643;43.158;25.302;2023-01-30T11:19:55;98081.94;;;1.92;96.44
29733;BME280;16643;43.158;25.302;2023-01-30T11:22:22;98064.00;;;1.92;96.00
29733;BME280;16643;43.158;25.302;2023-01-30T11:24:49;98069.16;;;2.01;95.31
29733;BME280;16643;43.158;25.302;2023-01-30T11:27:26;98066.59;;;2.01;94.72
29733;BME280;16643;43.158;25.302;2023-01-30T11:30:03;98063.13;;;1.96;93.82
29733;BME280;16643;43.158;25.302;2023-01-30T11:32:29;98056.25;;;1.84;94.83
29733;BME280;16643;43.158;25.302;2023-01-30T11:35:02;98056.25;;;1.76;96.84
29733;BME280;16643;43.158;25.302;2023-01-30T11:37:36;98045.19;;;1.93;96.14
29733;BME280;16643;43.158;25.302;2023-01-30T11:40:18;98045.25;;;2.12;96.41
29733;BME280;16643;43.158;25.302;2023-01-30T11:42:49;98043.56;;;2.24;94.59
29733;BME280;16643;43.158;25.302;2023-01-30T11:45:15;98034.16;;;2.32;95.03
29733;BME280;16643;43.158;25.302;2023-01-30T11:48:15;98027.34;;;2.32;93.88
29733;BME280;16643;43.158;25.302;2023-01-30T11:50:37;98028.16;;;2.27;95.33
29733;BME280;16643;43.158;25.302;2023-01-30T11:53:03;98017.88;;;2.14;95.38
29733;BME280;16643;43.158;25.302;2023-01-30T11:55:32;98018.75;;;2.06;95.85
29733;BME280;16643;43.158;25.302;2023-01-30T11:57:59;98020.47;;;2.16;96.05
29733;BME280;16643;43.158;25.302;2023-01-30T12:00:36;98011.06;;;2.15;96.58
29733;BME280;16643;43.158;25.302;2023-01-30T12:03:03;98008.50;;;2.09;95.63
29733;BME280;16643;43.158;25.302;2023-01-30T12:05:33;98006.78;;;2.08;96.12
29733;BME280;16643;43.158;25.302;2023-01-30T12:08:21;98000.78;;;1.95;96.20
29733;BME280;16643;43.158;25.302;2023-01-30T12:10:49;97994.81;;;1.92;97.54
29733;BME280;16643;43.158;25.302;2023-01-30T12:13:17;97995.66;;;1.95;97.14
29733;BME280;16643;43.158;25.302;2023-01-30T12:15:44;97999.06;;;1.87;96.59
29733;BME280;16643;43.158;25.302;2023-01-30T12:18:15;97997.34;;;1.78;96.02
29733;BME280;16643;43.158;25.302;2023-01-30T12:25:57;97989.69;;;1.87;97.11
29733;BME280;16643;43.158;25.302;2023-01-30T12:30:59;97976.03;;;1.99;96.32
29733;BME280;16643;43.158;25.302;2023-01-30T12:33:27;97976.88;;;1.92;96.69
29733;BME280;16643;43.158;25.302;2023-01-30T12:40:50;97976.00;;;1.77;96.01
29733;BME280;16643;43.158;25.302;2023-01-30T12:46:21;97975.16;;;1.80;98.12
29733;BME280;16643;43.158;25.302;2023-01-30T12:48:50;97971.72;;;1.81;97.03
29733;BME280;16643;43.158;25.302;2023-01-30T12:51:35;97978.56;;;1.79;96.50
29733;BME280;16643;43.158;25.302;2023-01-30T12:59:18;97961.47;;;1.76;97.28
29733;BME280;16643;43.158;25.302;2023-01-30T13:09:35;97941.00;;;1.84;96.80
29733;BME280;16643;43.158;25.302;2023-01-30T13:14:45;97931.59;;;1.81;97.36
29733;BME280;16643;43.158;25.302;2023-01-30T13:22:38;97921.38;;;2.01;96.34
29733;BME280;16643;43.158;25.302;2023-01-30T13:27:51;97923.06;;;2.27;94.83
29733;BME280;16643;43.158;25.302;2023-01-30T13:30:18;97923.91;;;2.27;94.40
29733;BME280;16643;43.158;25.302;2023-01-30T13:33:18;97926.50;;;2.24;93.93
29733;BME280;16643;43.158;25.302;2023-01-30T13:35:44;97923.06;;;2.16;93.19
29733;BME280;16643;43.158;25.302;2023-01-30T13:38:12;97919.66;;;2.20;93.37
29733;BME280;16643;43.158;25.302;2023-01-30T13:40:41;97906.00;;;2.09;92.66
29733;BME280;16643;43.158;25.302;2023-01-30T13:43:21;97904.31;;;2.14;92.90
29733;BME280;16643;43.158;25.302;2023-01-30T13:45:48;97906.00;;;2.07;94.10
29733;BME280;16643;43.158;25.302;2023-01-30T13:48:31;97903.44;;;2.12;94.51
29733;BME280;16643;43.158;25.302;2023-01-30T13:53:48;97902.56;;;2.08;95.26
29733;BME280;16643;43.158;25.302;2023-01-30T13:59:10;97896.59;;;2.25;95.88
29733;BME280;16643;43.158;25.302;2023-01-30T14:07:06;97892.28;;;2.27;95.26
29733;BME280;16643;43.158;25.302;2023-01-30T14:09:32;97890.63;;;2.26;94.58
29733;BME280;16643;43.158;25.302;2023-01-30T14:11:59;97893.19;;;2.07;94.36
29733;BME280;16643;43.158;25.302;2023-01-30T14:14:27;97890.63;;;2.13;93.92
29733;BME280;16643;43.158;25.302;2023-01-30T14:16:54;97898.31;;;2.10;93.28
29733;BME280;16643;43.158;25.302;2023-01-30T14:19:28;97894.88;;;2.08;93.80
29733;BME280;16643;43.158;25.302;2023-01-30T14:21:56;97884.63;;;1.98;94.51
29733;BME280;16643;43.158;25.302;2023-01-30T14:24:22;97881.22;;;2.00;94.93
29733;BME280;16643;43.158;25.302;2023-01-30T14:34:44;97877.78;;;1.92;94.64
29733;BME280;16643;43.158;25.302;2023-01-30T14:43:06;97873.53;;;1.87;94.45
29733;BME280;16643;43.158;25.302;2023-01-30T14:45:52;97870.97;;;1.88;94.24
29733;BME280;16643;43.158;25.302;2023-01-30T14:48:37;97871.00;;;1.90;95.11
29733;BME280;16643;43.158;25.302;2023-01-30T14:54:06;97870.13;;;1.98;94.57
29733;BME280;16643;43.158;25.302;2023-01-30T15:01:54;97862.44;;;1.75;94.55
29733;BME280;16643;43.158;25.302;2023-01-30T15:04:20;97865.84;;;1.64;95.96
29733;BME280;16643;43.158;25.302;2023-01-30T15:06:46;97876.06;;;1.59;95.88
29733;BME280;16643;43.158;25.302;2023-01-30T15:09:20;97870.13;;;1.65;95.71
29733;BME280;16643;43.158;25.302;2023-01-30T15:11:49;97869.25;;;1.70;95.90
29733;BME280;16643;43.158;25.302;2023-01-30T15:14:17;97862.44;;;1.74;96.52
29733;BME280;16643;43.158;25.302;2023-01-30T15:16:50;97870.09;;;1.62;96.84
29733;BME280;16643;43.158;25.302;2023-01-30T15:19:25;97859.84;;;1.50;97.42
29733;BME280;16643;43.158;25.302;2023-01-30T15:32:27;97854.69;;;1.27;100.00